Time;durP1;ratioP1;P1;durP2;ratioP2;P2;SDS_P1;SDS_P2;PMS_P1;PMS_P2;Temp;Humidity;BMP_temperature;BMP_pressure;BME280_temperature;BME280_humidity;BME280_pressure;Samples;Min_cycle;Max_cycle;Signal;HPM_P1;HPM_P2
2021/05/31 00:00:18;;;;;;;8.70;2.70;;;;;;;12.65;74.33;99388.06;1857543;75;20985;-40
2021/05/31 00:02:46;;;;;;;5.83;2.30;;;;;;;12.63;74.12;99391.14;1883084;75;21068;-40
2021/05/31 00:05:13;;;;;;;4.95;2.20;;;;;;;12.61;73.95;99393.47;1853047;75;20971;-40
2021/05/31 00:07:40;;;;;;;6.10;2.30;;;;;;;12.63;74.19;99394.47;1857293;75;21101;-41
2021/05/31 00:10:10;;;;;;;4.72;2.50;;;;;;;12.59;73.88;99397.13;1854716;75;20978;-40
2021/05/31 00:12:38;;;;;;;6.30;2.12;;;;;;;12.54;73.92;99398.81;1857106;75;21586;-41
2021/05/31 00:15:08;;;;;;;;;;;;;;;12.49;73.90;99393.70;1848615;75;21741;-41
2021/05/31 00:17:35;;;;;;;5.35;2.55;;;;;;;12.50;73.89;99398.00;1867906;75;20156;-41
2021/05/31 00:20:05;;;;;;;7.55;2.60;;;;;;;12.41;74.10;99403.52;1875486;75;21580;-40
2021/05/31 00:22:32;;;;;;;6.25;2.25;;;;;;;12.41;74.05;99407.02;1857740;75;21098;-40
2021/05/31 00:24:59;;;;;;;5.10;2.00;;;;;;;12.45;74.00;99406.48;1855405;75;21565;-40
2021/05/31 00:27:26;;;;;;;2.95;2.15;;;;;;;12.50;73.90;99410.23;1872627;75;21712;-40
2021/05/31 00:29:53;;;;;;;4.28;2.35;;;;;;;12.59;73.48;99416.16;1859125;76;20966;-40
2021/05/31 00:32:21;;;;;;;8.73;2.58;;;;;;;12.61;73.39;99412.52;1852194;75;20998;-41
2021/05/31 00:34:49;;;;;;;7.17;2.08;;;;;;;12.66;73.46;99411.97;1834925;76;21117;-40
2021/05/31 00:37:16;;;;;;;6.12;2.20;;;;;;;12.70;73.34;99414.14;1844958;75;21592;-40
2021/05/31 00:39:44;;;;;;;5.00;2.10;;;;;;;12.78;73.25;99413.09;1857234;75;21772;-41
2021/05/31 00:42:11;;;;;;;4.37;2.25;;;;;;;12.85;73.14;99407.70;1851718;75;21078;-40
2021/05/31 00:44:38;;;;;;;4.25;2.40;;;;;;;12.85;73.18;99409.06;1834396;77;21106;-40
2021/05/31 00:47:05;;;;;;;5.37;2.60;;;;;;;12.88;73.24;99411.03;1813942;77;21019;-40
2021/05/31 00:49:37;;;;;;;6.35;1.98;;;;;;;12.90;73.28;99413.60;1778689;78;21631;-40
2021/05/31 00:52:03;;;;;;;4.62;2.45;;;;;;;12.96;73.19;99412.69;1784502;79;21309;-40
2021/05/31 00:54:30;;;;;;;5.33;2.20;;;;;;;13.05;73.15;99414.52;1817762;78;21140;-40
2021/05/31 00:56:57;;;;;;;4.62;2.40;;;;;;;13.11;72.83;99425.31;1819309;77;21552;-40
2021/05/31 00:59:24;;;;;;;5.78;2.50;;;;;;;13.11;72.49;99425.86;1797140;78;21006;-41
2021/05/31 01:01:53;;;;;;;3.75;2.25;;;;;;;13.08;72.20;99421.93;1820170;77;21528;-40
2021/05/31 01:04:19;;;;;;;4.60;2.40;;;;;;;13.07;72.04;99424.44;1818372;77;21086;-41
2021/05/31 01:07:02;;;;;;;6.08;2.45;;;;;;;13.10;72.12;99427.80;1820346;77;20967;-40
2021/05/31 01:09:58;;;;;;;5.95;2.58;;;;;;;13.14;71.88;99423.19;1819440;77;21037;-40
2021/05/31 01:12:54;;;;;;;8.23;3.12;;;;;;;13.10;71.76;99429.16;1796155;77;20985;-41
2021/05/31 01:15:34;;;;;;;4.78;2.30;;;;;;;13.01;71.81;99427.32;1783865;78;21546;-40
2021/05/31 01:18:07;;;;;;;;;;;;;;;12.93;71.98;99424.30;1783297;78;21087;-41
2021/05/31 01:21:24;;;;;;;8.85;2.52;;;;;;;12.86;72.03;99428.33;1762759;79;20267;-40
2021/05/31 01:24:05;;;;;;;6.40;2.98;;;;;;;12.67;72.59;99427.14;1778550;78;20974;-41
2021/05/31 01:26:49;;;;;;;10.35;2.40;;;;;;;12.55;72.92;99422.14;1719812;80;21099;-40
2021/05/31 01:29:16;;;;;;;6.87;2.40;;;;;;;12.50;73.03;99421.69;1746541;79;21059;-40
2021/05/31 01:31:54;;;;;;;6.37;2.50;;;;;;;12.47;72.98;99416.42;1775610;78;21092;-40
2021/05/31 01:34:24;;;;;;;6.33;2.67;;;;;;;12.46;73.00;99420.29;1791300;78;21193;-40
2021/05/31 01:37:07;;;;;;;10.48;2.90;;;;;;;12.39;72.93;99422.91;1782729;78;21114;-41
2021/05/31 01:39:37;;;;;;;3.30;2.45;;;;;;;12.34;72.97;99420.55;1768248;80;20990;-40
2021/05/31 01:42:05;;;;;;;6.87;2.62;;;;;;;12.31;72.88;99422.63;1776907;78;21162;-41
2021/05/31 01:44:32;;;;;;;5.35;2.52;;;;;;;12.31;72.74;99427.27;1802729;78;21047;-41
2021/05/31 01:46:59;;;;;;;6.25;2.95;;;;;;;12.26;72.83;99428.95;1814794;77;21608;-41
2021/05/31 01:49:27;;;;;;;6.33;2.00;;;;;;;12.23;73.00;99426.41;1779601;79;21294;-40
2021/05/31 01:51:54;;;;;;;4.87;2.10;;;;;;;12.26;72.78;99437.11;1769072;79;21026;-41
2021/05/31 01:54:21;;;;;;;5.87;2.67;;;;;;;12.26;72.86;99435.75;1744192;79;21142;-40
2021/05/31 01:56:50;;;;;;;6.37;2.30;;;;;;;12.23;73.00;99435.14;1803833;78;21072;-40
2021/05/31 01:59:21;;;;;;;8.85;2.45;;;;;;;12.19;72.96;99441.89;1791508;78;21013;-40
2021/05/31 02:01:48;;;;;;;6.75;2.40;;;;;;;12.19;72.92;99443.25;1800389;78;21090;-40
2021/05/31 02:04:15;;;;;;;6.22;2.62;;;;;;;12.24;72.79;99448.94;1787094;78;21593;-42
2021/05/31 02:06:42;;;;;;;7.58;2.77;;;;;;;12.22;72.71;99442.50;1809851;78;21031;-41
2021/05/31 02:09:09;;;;;;;3.40;2.37;;;;;;;12.20;72.67;99440.72;1789013;78;21694;-40
2021/05/31 02:11:52;;;;;;;6.62;2.50;;;;;;;12.19;72.53;99440.53;1785794;78;21010;-40
2021/05/31 02:14:54;;;;;;;7.22;2.70;;;;;;;12.24;72.38;99440.78;1785017;79;21037;-40
2021/05/31 02:17:27;;;;;;;8.18;2.77;;;;;;;12.19;72.56;99441.32;1801816;78;21023;-41
2021/05/31 02:20:05;;;;;;;5.95;2.42;;;;;;;12.14;72.63;99441.64;1791578;77;21194;-40
2021/05/31 02:22:34;;;;;;;7.55;2.40;;;;;;;12.14;72.75;99443.00;1786230;78;21042;-40
2021/05/31 02:25:01;;;;;;;9.17;2.57;;;;;;;12.17;72.66;99440.89;1782749;79;21549;-40
2021/05/31 02:27:28;;;;;;;7.22;2.92;;;;;;;12.18;72.71;99442.47;1792184;77;21082;-41
2021/05/31 02:29:55;;;;;;;7.20;2.50;;;;;;;12.17;72.76;99437.39;1820285;78;21557;-41
2021/05/31 02:32:22;;;;;;;6.78;2.30;;;;;;;12.18;72.99;99442.47;1790675;78;21057;-40
2021/05/31 02:34:49;;;;;;;6.37;2.42;;;;;;;12.27;72.83;99437.32;1780054;78;21097;-40
2021/05/31 02:37:15;;;;;;;6.97;2.65;;;;;;;12.32;72.76;99433.71;1780861;78;21173;-40
2021/05/31 02:39:43;;;;;;;6.45;2.90;;;;;;;12.32;72.88;99435.64;1776929;79;21104;-40
2021/05/31 02:42:10;;;;;;;6.28;2.60;;;;;;;12.28;73.18;99431.52;1797229;78;20993;-40
2021/05/31 02:44:36;;;;;;;9.10;3.00;;;;;;;12.27;73.28;99431.31;1812392;78;21040;-41
2021/05/31 02:48:57;;;;;;;11.35;3.20;;;;;;;12.41;73.18;99438.29;1863179;76;22251;-40
2021/05/31 02:51:24;;;;;;;4.25;2.45;;;;;;;12.33;73.38;99432.56;1857628;77;20989;-40
2021/05/31 02:53:51;;;;;;;6.00;2.33;;;;;;;12.33;73.23;99435.28;1853949;77;22239;-40
2021/05/31 02:56:18;;;;;;;7.42;2.62;;;;;;;12.35;73.42;99445.20;1817261;78;20998;-40
2021/05/31 02:58:44;;;;;;;5.83;2.70;;;;;;;12.42;73.36;99438.50;1808240;78;20990;-40
2021/05/31 03:01:11;;;;;;;8.93;3.50;;;;;;;12.47;73.32;99444.19;1812681;78;21007;-40
2021/05/31 03:03:38;;;;;;;10.05;2.92;;;;;;;12.50;73.00;99438.78;1779936;79;20943;-40
2021/05/31 03:06:05;;;;;;;5.50;2.95;;;;;;;12.54;73.11;99441.55;1783903;80;21060;-40
2021/05/31 03:08:31;;;;;;;4.03;2.90;;;;;;;12.59;73.15;99439.28;1776636;80;20916;-40
2021/05/31 03:10:58;;;;;;;8.48;2.75;;;;;;;12.68;72.86;99445.03;1784592;78;21604;-40
2021/05/31 03:13:25;;;;;;;6.72;2.90;;;;;;;12.73;72.81;99443.34;1820327;78;20963;-40
2021/05/31 03:15:52;;;;;;;8.30;3.12;;;;;;;12.78;72.61;99443.02;1801503;78;22683;-40
2021/05/31 03:18:18;;;;;;;9.53;2.90;;;;;;;12.81;72.73;99444.41;1804769;78;21077;-40
2021/05/31 03:20:45;;;;;;;12.37;3.05;;;;;;;12.83;72.67;99444.05;1815145;78;21000;-40
2021/05/31 03:23:12;;;;;;;6.20;2.70;;;;;;;12.86;72.88;99437.27;1804339;78;20972;-40
2021/05/31 03:25:39;;;;;;;9.55;3.15;;;;;;;12.93;72.85;99444.14;1807943;78;21012;-40
2021/05/31 03:28:06;;;;;;;8.50;2.92;;;;;;;12.95;72.57;99447.85;1806062;77;21732;-40
2021/05/31 03:30:33;;;;;;;8.75;3.00;;;;;;;12.94;72.54;99447.64;1796237;77;21670;-40
2021/05/31 03:32:59;;;;;;;8.63;2.98;;;;;;;12.99;72.78;99446.73;1791558;78;21078;-40
2021/05/31 03:35:26;;;;;;;7.97;3.40;;;;;;;13.06;72.56;99451.48;1798297;78;21548;-40
2021/05/31 03:37:52;;;;;;;7.00;3.55;;;;;;;13.10;72.75;99445.48;1840467;77;21010;-40
2021/05/31 03:40:21;;;;;;;9.83;3.67;;;;;;;13.08;72.48;99452.66;1803850;78;21577;-40
2021/05/31 03:42:53;;;;;;;11.05;3.00;;;;;;;13.08;72.36;99459.46;1816160;78;21053;-40
2021/05/31 03:45:19;;;;;;;10.05;3.60;;;;;;;13.10;72.49;99459.09;1798318;78;20982;-40
2021/05/31 03:47:46;;;;;;;8.53;3.62;;;;;;;13.13;72.75;99458.37;1779058;78;21023;-40
2021/05/31 03:50:13;;;;;;;6.08;3.40;;;;;;;13.12;72.56;99460.87;1777193;79;20958;-40
2021/05/31 03:52:40;;;;;;;8.38;3.25;;;;;;;13.09;72.49;99460.25;1788386;78;21078;-40
2021/05/31 03:55:09;;;;;;;13.20;3.75;;;;;;;13.11;72.50;99452.53;1800898;78;22163;-40
2021/05/31 03:57:36;;;;;;;12.13;3.80;;;;;;;13.14;72.21;99449.05;1805116;79;21718;-40
2021/05/31 04:00:09;;;;;;;11.83;3.60;;;;;;;13.13;72.20;99444.76;1796971;78;21002;-40
2021/05/31 04:02:40;;;;;;;8.00;4.00;;;;;;;13.11;72.33;99451.17;1789654;79;21015;-40
2021/05/31 04:05:10;;;;;;;11.08;3.47;;;;;;;13.11;72.63;99440.83;1786572;78;20988;-40
2021/05/31 04:13:07;;;;;;;8.23;4.12;;;;;;;13.14;72.25;99446.91;1799420;79;20982;-40
2021/05/31 04:15:34;;;;;;;6.50;3.62;;;;;;;13.14;72.72;99443.61;1788555;79;20969;-40
2021/05/31 04:18:00;;;;;;;12.03;4.33;;;;;;;13.20;72.68;99444.84;1769317;81;21017;-40
2021/05/31 04:20:29;;;;;;;6.58;3.67;;;;;;;13.27;72.31;99438.09;1781658;79;21089;-40
2021/05/31 04:22:57;;;;;;;10.08;3.90;;;;;;;13.29;71.43;99445.31;1769704;79;20922;-40
2021/05/31 04:25:25;;;;;;;14.03;3.58;;;;;;;13.30;71.46;99448.24;1771386;79;21057;-40
2021/05/31 04:27:52;;;;;;;6.50;3.75;;;;;;;13.33;71.01;99445.34;1776200;79;21004;-42
2021/05/31 04:30:20;;;;;;;7.92;3.27;;;;;;;13.44;70.94;99443.50;1781478;78;22302;-42
2021/05/31 04:32:47;;;;;;;5.95;3.10;;;;;;;13.44;70.02;99445.65;1784988;79;21054;-42
2021/05/31 04:35:14;;;;;;;8.80;3.47;;;;;;;13.43;69.79;99442.71;1790585;79;20914;-42
2021/05/31 04:37:40;;;;;;;13.15;3.85;;;;;;;13.42;69.41;99445.23;1785156;79;20923;-42
2021/05/31 04:40:08;;;;;;;8.83;3.92;;;;;;;13.46;69.73;99448.76;1784509;79;20967;-42
2021/05/31 04:42:35;;;;;;;7.03;3.72;;;;;;;13.47;70.79;99447.61;1783611;79;20919;-42
2021/05/31 04:45:01;;;;;;;10.40;3.60;;;;;;;13.52;70.89;99448.41;1783682;79;21029;-42
2021/05/31 04:47:28;;;;;;;9.68;3.37;;;;;;;13.58;70.82;99448.28;1786108;79;21660;-42
2021/05/31 04:49:55;;;;;;;10.85;3.80;;;;;;;13.61;69.76;99446.16;1792071;79;21029;-42
2021/05/31 04:52:22;;;;;;;5.58;3.08;;;;;;;13.63;69.90;99447.93;1790121;79;21001;-42
2021/05/31 04:54:50;;;;;;;7.47;3.02;;;;;;;13.66;69.88;99449.31;1774746;79;21533;-42
2021/05/31 04:57:17;;;;;;;6.30;3.22;;;;;;;13.77;70.12;99450.76;1781031;79;21047;-42
2021/05/31 04:59:44;;;;;;;5.33;2.87;;;;;;;13.83;68.67;99454.70;1789853;78;21721;-42
2021/05/31 05:02:11;;;;;;;8.75;3.45;;;;;;;13.81;68.13;99449.63;1783092;79;21563;-42
2021/05/31 05:04:38;;;;;;;5.33;3.02;;;;;;;13.74;68.22;99457.77;1782374;79;20980;-42
2021/05/31 05:07:04;;;;;;;10.50;2.60;;;;;;;13.71;68.58;99454.41;1780185;79;21041;-42
2021/05/31 05:09:32;;;;;;;6.92;2.52;;;;;;;13.71;67.62;99452.27;1778724;79;21691;-42
2021/05/31 05:11:59;;;;;;;10.40;3.20;;;;;;;13.73;66.88;99454.05;1780101;79;21018;-42
2021/05/31 05:14:26;;;;;;;10.25;3.05;;;;;;;13.71;67.87;99457.14;1790892;79;21037;-42
2021/05/31 05:16:53;;;;;;;10.00;2.70;;;;;;;13.72;68.53;99455.98;1787033;79;21579;-42
2021/05/31 05:19:19;;;;;;;7.87;2.98;;;;;;;13.71;67.41;99459.86;1787584;78;21044;-42
2021/05/31 05:21:47;;;;;;;8.33;2.70;;;;;;;13.74;67.40;99459.70;1787482;79;21084;-42
2021/05/31 05:24:14;;;;;;;7.35;2.72;;;;;;;13.76;66.84;99464.17;1779546;79;21029;-42
2021/05/31 05:26:41;;;;;;;7.58;2.45;;;;;;;13.76;66.48;99461.45;1799612;78;20981;-42
2021/05/31 05:29:09;;;;;;;5.22;2.25;;;;;;;13.79;67.19;99472.98;1790471;80;21013;-42
2021/05/31 05:31:39;;;;;;;7.92;2.80;;;;;;;13.83;66.95;99467.75;1777141;80;21566;-42
2021/05/31 05:34:06;;;;;;;5.03;2.30;;;;;;;13.92;67.10;99468.20;1795876;79;21069;-42
2021/05/31 05:42:16;;;;;;;10.70;2.95;;;;;;;13.99;65.53;99466.70;1765894;79;21540;-42
2021/05/31 05:45:11;;;;;;;7.17;2.47;;;;;;;13.91;64.77;99471.30;1797541;79;21064;-42
2021/05/31 05:49:47;;;;;;;5.20;2.40;;;;;;;13.99;66.11;99468.06;1775677;79;21019;-42
2021/05/31 05:52:14;;;;;;;5.40;3.02;;;;;;;14.05;65.73;99475.48;1757105;80;21033;-42
2021/05/31 05:54:41;;;;;;;9.90;2.90;;;;;;;14.09;64.95;99476.28;1760320;80;20990;-42
2021/05/31 05:57:08;;;;;;;10.75;3.35;;;;;;;14.10;64.83;99472.98;1773241;80;20991;-42
2021/05/31 05:59:35;;;;;;;13.78;3.12;;;;;;;14.07;64.94;99472.39;1744274;82;21476;-42
2021/05/31 06:02:02;;;;;;;3.80;2.35;;;;;;;14.02;64.97;99473.53;1752214;80;20994;-42
2021/05/31 06:04:29;;;;;;;6.40;2.55;;;;;;;14.06;64.74;99468.88;1757625;80;20895;-42
2021/05/31 06:06:56;;;;;;;8.90;2.62;;;;;;;14.15;64.22;99469.90;1751649;80;21571;-42
2021/05/31 06:09:23;;;;;;;7.83;3.00;;;;;;;14.19;64.15;99470.12;1754475;80;20962;-42
2021/05/31 06:11:50;;;;;;;9.10;3.40;;;;;;;14.26;64.62;99471.54;1750404;80;21188;-42
2021/05/31 06:14:16;;;;;;;5.33;2.98;;;;;;;14.38;64.07;99475.14;1749526;80;20955;-42
2021/05/31 06:16:44;;;;;;;8.55;2.70;;;;;;;14.47;64.69;99476.36;1749822;80;20910;-42
2021/05/31 06:19:11;;;;;;;7.53;2.45;;;;;;;14.62;63.39;99477.22;1749871;80;21002;-43
2021/05/31 06:21:38;;;;;;;6.78;2.60;;;;;;;14.67;62.35;99474.87;1749966;80;21074;-42
2021/05/31 06:24:06;;;;;;;6.78;2.87;;;;;;;14.64;62.39;99481.69;1749768;80;21088;-42
2021/05/31 06:26:33;;;;;;;7.45;3.00;;;;;;;14.66;62.54;99476.64;1750167;80;20927;-42
2021/05/31 06:28:59;;;;;;;8.70;3.17;;;;;;;14.69;62.71;99473.92;1749743;80;20970;-42
2021/05/31 06:31:26;;;;;;;10.25;2.37;;;;;;;14.69;63.05;99476.65;1749642;80;21122;-42
2021/05/31 06:33:53;;;;;;;7.47;2.70;;;;;;;14.72;60.83;99470.41;1771446;80;21540;-42
2021/05/31 06:36:20;;;;;;;7.03;2.42;;;;;;;14.75;61.49;99477.06;1750279;80;21189;-42
2021/05/31 06:38:47;;;;;;;9.58;2.37;;;;;;;14.74;61.92;99482.32;1754603;80;20967;-42
2021/05/31 06:41:13;;;;;;;7.28;2.17;;;;;;;14.72;60.67;99486.00;1763219;80;20998;-42
2021/05/31 06:43:40;;;;;;;6.75;2.55;;;;;;;14.66;61.30;99475.27;1750898;80;21050;-42
2021/05/31 06:46:08;;;;;;;7.17;2.42;;;;;;;14.64;61.62;99481.11;1767780;80;21590;-42
2021/05/31 06:48:36;;;;;;;7.75;2.55;;;;;;;14.62;60.64;99485.40;1753585;80;20958;-42
2021/05/31 06:51:05;;;;;;;4.47;2.65;;;;;;;14.57;60.90;99483.03;1763027;80;20970;-42
2021/05/31 06:53:33;;;;;;;10.35;2.60;;;;;;;14.51;61.78;99479.10;1754138;80;21049;-42
2021/05/31 06:56:00;;;;;;;6.30;2.40;;;;;;;14.51;62.43;99477.16;1764421;80;21041;-42
2021/05/31 06:58:27;;;;;;;9.80;3.08;;;;;;;14.60;61.70;99480.31;1764524;80;21682;-42
2021/05/31 07:00:53;;;;;;;5.28;2.58;;;;;;;14.62;62.19;99478.58;1755989;80;21841;-42
2021/05/31 07:03:20;;;;;;;8.93;2.65;;;;;;;14.69;61.93;99479.95;1755416;80;20931;-42
2021/05/31 07:05:46;;;;;;;9.23;2.67;;;;;;;14.68;60.99;99481.12;1761772;80;21069;-42
2021/05/31 07:08:13;;;;;;;5.85;2.72;;;;;;;14.68;61.93;99482.48;1750982;80;21010;-42
2021/05/31 07:10:40;;;;;;;9.03;2.72;;;;;;;14.69;61.32;99481.32;1763312;80;21189;-42
2021/05/31 07:13:07;;;;;;;9.33;2.87;;;;;;;14.67;61.16;99483.64;1753466;80;21077;-42
2021/05/31 07:15:35;;;;;;;5.05;2.40;;;;;;;14.65;62.23;99483.26;1775571;80;22096;-42
2021/05/31 07:18:02;;;;;;;6.62;2.72;;;;;;;14.68;62.51;99481.12;1761327;80;21552;-41
2021/05/31 07:20:30;;;;;;;5.42;2.60;;;;;;;14.78;61.39;99473.55;1730462;82;21100;-42
2021/05/31 07:22:57;;;;;;;6.05;2.60;;;;;;;14.84;61.09;99477.48;1725420;82;21543;-42
2021/05/31 07:25:24;;;;;;;7.95;3.02;;;;;;;14.90;60.94;99481.41;1730874;82;21711;-42
2021/05/31 07:27:54;;;;;;;7.12;2.60;;;;;;;14.94;58.78;99476.73;1727424;82;21017;-42
2021/05/31 07:30:20;;;;;;;5.87;2.50;;;;;;;15.01;60.25;99481.42;1748059;82;21007;-42
2021/05/31 07:32:47;;;;;;;6.15;2.70;;;;;;;15.07;60.02;99483.98;1748520;82;20997;-42
2021/05/31 07:35:14;;;;;;;10.25;2.70;;;;;;;15.08;59.24;99484.97;1741267;82;21001;-42
2021/05/31 07:37:40;;;;;;;8.78;2.90;;;;;;;15.08;59.26;99478.14;1731070;82;21088;-42
2021/05/31 07:40:11;;;;;;;4.95;2.50;;;;;;;15.13;59.48;99480.50;1729467;82;21453;-42
2021/05/31 07:42:38;;;;;;;4.42;2.30;;;;;;;15.22;60.50;99487.73;1740517;82;21105;-42
2021/05/31 07:45:08;;;;;;;6.47;2.47;;;;;;;15.36;60.06;99491.66;1735189;82;21115;-42
2021/05/31 07:47:34;;;;;;;4.78;2.20;;;;;;;15.47;60.63;99488.36;1733903;82;21084;-42
2021/05/31 07:50:01;;;;;;;4.95;2.40;;;;;;;15.51;59.91;99497.36;1749073;81;21046;-42
2021/05/31 07:52:28;;;;;;;5.33;2.10;;;;;;;15.48;59.60;99496.76;1759493;81;21046;-42
2021/05/31 07:54:56;;;;;;;6.62;2.35;;;;;;;15.44;59.36;99501.44;1747232;80;20938;-42
2021/05/31 07:57:23;;;;;;;5.00;2.10;;;;;;;15.42;59.74;99491.47;1756115;81;21023;-42
2021/05/31 07:59:52;;;;;;;3.25;1.85;;;;;;;15.42;59.79;99490.11;1759267;81;21049;-42
2021/05/31 08:02:19;;;;;;;3.67;2.33;;;;;;;15.42;58.88;99495.57;1754867;81;21086;-42
2021/05/31 08:04:46;;;;;;;4.40;2.40;;;;;;;15.44;58.15;99492.63;1749049;80;21031;-42
2021/05/31 08:07:13;;;;;;;4.50;2.10;;;;;;;15.44;58.11;99498.70;1744037;81;20974;-42
2021/05/31 08:09:41;;;;;;;3.62;2.17;;;;;;;15.42;57.62;99503.19;1746417;80;21544;-42
2021/05/31 08:12:10;;;;;;;7.22;2.42;;;;;;;15.38;57.63;99503.77;1754833;81;21522;-42
2021/05/31 08:14:36;;;;;;;4.53;2.30;;;;;;;15.34;57.61;99507.09;1747521;81;21086;-42
2021/05/31 08:17:04;;;;;;;3.70;1.80;;;;;;;15.28;58.09;99500.43;1756785;81;20996;-42
2021/05/31 08:19:32;;;;;;;3.27;1.90;;;;;;;15.22;57.90;99504.13;1747340;81;21598;-42
2021/05/31 08:22:01;;;;;;;5.10;2.00;;;;;;;15.23;58.43;99507.64;1757587;81;20955;-42
2021/05/31 08:24:28;;;;;;;4.42;1.92;;;;;;;15.25;58.33;99508.63;1759488;80;21057;-42
2021/05/31 08:26:56;;;;;;;6.72;2.27;;;;;;;15.27;57.35;99502.95;1761758;80;21049;-42
2021/05/31 08:29:23;;;;;;;4.45;1.80;;;;;;;15.35;58.62;99504.52;1760605;81;21092;-42
2021/05/31 08:31:50;;;;;;;10.40;2.17;;;;;;;15.48;58.45;99504.95;1761280;80;21096;-42
2021/05/31 08:34:18;;;;;;;2.80;1.90;;;;;;;15.69;57.87;99511.03;1755082;79;20985;-42
2021/05/31 08:36:45;;;;;;;3.55;1.70;;;;;;;15.78;56.71;99506.74;1750953;79;21049;-42
2021/05/31 08:39:12;;;;;;;3.62;1.52;;;;;;;15.81;56.33;99505.98;1753627;81;21094;-42
2021/05/31 08:41:39;;;;;;;3.70;2.95;;;;;;;15.83;55.22;99506.36;1759888;80;21562;-42
2021/05/31 08:44:06;;;;;;;4.00;2.45;;;;;;;15.87;56.81;99507.74;1753140;81;21325;-42
2021/05/31 08:46:34;;;;;;;7.92;2.10;;;;;;;15.91;56.93;99516.14;1753544;80;21045;-42
2021/05/31 08:49:03;;;;;;;2.75;2.00;;;;;;;15.90;55.62;99506.95;1756498;81;21065;-42
2021/05/31 08:51:29;;;;;;;2.67;1.60;;;;;;;15.88;55.59;99509.28;1746750;81;21143;-42
2021/05/31 08:53:56;;;;;;;3.37;1.72;;;;;;;15.86;55.44;99508.91;1785026;80;21016;-42
2021/05/31 08:56:24;;;;;;;5.72;2.00;;;;;;;15.83;55.75;99503.63;1788355;79;21057;-42
2021/05/31 08:58:51;;;;;;;3.30;1.80;;;;;;;15.85;55.94;99499.92;1763540;81;21570;-42
2021/05/31 09:01:20;;;;;;;3.95;1.80;;;;;;;15.86;54.92;99494.66;1762069;81;21067;-42
2021/05/31 09:03:47;;;;;;;3.58;1.72;;;;;;;15.93;53.98;99494.64;1761419;81;21051;-42
2021/05/31 09:06:14;;;;;;;2.00;1.60;;;;;;;16.04;54.61;99499.52;1791651;80;21569;-42
2021/05/31 09:08:56;;;;;;;4.00;1.37;;;;;;;16.19;55.41;99504.97;1782626;80;21062;-42
2021/05/31 09:11:25;;;;;;;5.03;1.42;;;;;;;16.31;55.01;99504.58;1752487;80;21038;-42
2021/05/31 09:13:54;;;;;;;3.40;1.30;;;;;;;16.40;54.31;99499.47;1759149;79;20961;-42
2021/05/31 09:16:28;;;;;;;2.50;1.22;;;;;;;16.49;53.32;99502.57;1770768;79;21659;-42
2021/05/31 09:19:02;;;;;;;3.98;1.20;;;;;;;16.55;52.96;99507.05;1728895;82;21018;-42
2021/05/31 09:21:34;;;;;;;2.05;1.20;;;;;;;16.57;51.40;99499.21;1734143;81;21089;-42
2021/05/31 09:24:13;;;;;;;3.90;1.40;;;;;;;16.55;53.09;99510.57;1762713;80;21022;-42
2021/05/31 09:26:51;;;;;;;3.10;1.10;;;;;;;16.52;51.94;99513.50;1765177;81;20979;-42
2021/05/31 09:29:19;;;;;;;2.85;1.22;;;;;;;16.44;51.22;99501.60;1764803;81;21060;-42
2021/05/31 09:32:01;;;;;;;2.05;1.45;;;;;;;16.40;51.81;99513.94;1756737;80;21103;-42
2021/05/31 09:34:27;;;;;;;4.28;1.50;;;;;;;16.35;51.32;99508.86;1762152;80;21012;-42
2021/05/31 09:36:58;;;;;;;3.52;1.45;;;;;;;16.34;51.94;99511.98;1756352;80;21014;-42
2021/05/31 09:39:33;;;;;;;;;;;;;;;16.36;53.04;99523.33;1749371;81;20963;-42
2021/05/31 09:42:11;;;;;;;1.67;1.10;;;;;;;16.37;53.33;99516.66;1757957;79;21084;-42
2021/05/31 09:44:37;;;;;;;2.55;1.25;;;;;;;16.31;54.17;99520.98;1771533;80;21023;-42
2021/05/31 09:47:03;;;;;;;4.95;1.30;;;;;;;16.39;52.49;99517.05;1769355;80;21359;-42
2021/05/31 09:49:30;;;;;;;3.08;1.30;;;;;;;16.44;53.20;99517.44;1762401;80;20956;-43
2021/05/31 09:52:08;;;;;;;1.65;1.25;;;;;;;16.47;51.30;99524.84;1746364;81;21159;-42
2021/05/31 09:54:43;;;;;;;2.02;1.20;;;;;;;16.50;52.15;99512.34;1756581;81;22003;-42
2021/05/31 09:57:30;;;;;;;3.25;1.20;;;;;;;16.48;51.89;99521.53;1753776;81;21948;-42
2021/05/31 10:00:17;;;;;;;1.60;1.17;;;;;;;16.48;52.12;99521.53;1746400;81;21013;-43
2021/05/31 10:05:41;;;;;;;2.27;1.40;;;;;;;16.46;52.35;99513.70;1749007;80;21551;-43
2021/05/31 10:10:46;;;;;;;3.05;1.10;;;;;;;16.51;52.95;99510.56;1747175;81;21630;-43
2021/05/31 10:13:15;;;;;;;2.87;1.55;;;;;;;16.51;52.40;99512.52;1746804;81;20986;-43
2021/05/31 10:15:42;;;;;;;2.90;1.52;;;;;;;16.50;51.01;99512.34;1738464;81;20989;-43
2021/05/31 10:18:12;;;;;;;1.98;1.30;;;;;;;16.49;51.36;99505.30;1756931;81;20945;-43
2021/05/31 10:20:39;;;;;;;1.40;1.27;;;;;;;16.48;52.94;99514.09;1729544;83;21062;-43
2021/05/31 10:23:08;;;;;;;3.80;1.40;;;;;;;16.46;52.73;99518.39;1729604;83;20918;-43
2021/05/31 10:25:39;;;;;;;3.50;1.30;;;;;;;16.42;52.18;99515.67;1750453;81;20981;-43
2021/05/31 10:28:18;;;;;;;1.77;1.25;;;;;;;16.39;52.74;99515.69;1733923;81;21016;-43
2021/05/31 10:30:51;;;;;;;1.17;1.07;;;;;;;16.41;52.67;99511.37;1746155;81;21569;-43
2021/05/31 10:33:22;;;;;;;1.35;1.02;;;;;;;16.46;50.94;99510.18;1750500;81;21101;-43
2021/05/31 10:35:51;;;;;;;1.65;1.02;;;;;;;16.50;51.49;99513.13;1757473;81;21019;-43
2021/05/31 10:38:23;;;;;;;3.85;0.85;;;;;;;16.56;51.24;99512.11;1733581;81;21102;-43
2021/05/31 10:40:53;;;;;;;2.27;1.05;;;;;;;16.64;51.27;99510.96;1727199;81;21585;-43
2021/05/31 10:43:25;;;;;;;3.40;0.90;;;;;;;16.77;50.72;99508.56;1711889;82;21091;-43
2021/05/31 10:46:04;;;;;;;3.12;1.30;;;;;;;16.87;50.40;99508.52;1751638;81;21053;-43
2021/05/31 10:48:50;;;;;;;1.67;0.90;;;;;;;16.93;49.80;99511.63;1756957;81;20926;-41
2021/05/31 10:51:22;;;;;;;1.00;1.00;;;;;;;16.98;51.31;99509.06;1738610;81;20887;-42
2021/05/31 10:53:49;;;;;;;1.70;0.93;;;;;;;17.03;51.74;99505.91;1740835;81;20918;-41
2021/05/31 10:56:29;;;;;;;2.90;1.10;;;;;;;17.07;49.76;99506.09;1733167;81;20992;-41
2021/05/31 10:58:59;;;;;;;0.95;0.72;;;;;;;17.10;50.60;99499.02;1742824;81;21823;-41
2021/05/31 11:01:37;;;;;;;4.30;1.32;;;;;;;17.12;50.64;99504.30;1738956;81;20949;-41
2021/05/31 11:04:21;;;;;;;1.32;0.90;;;;;;;17.15;49.48;99499.97;1737165;81;20941;-41
2021/05/31 11:06:55;;;;;;;3.67;0.80;;;;;;;17.13;48.93;99505.09;1735241;81;21578;-41
2021/05/31 11:09:32;;;;;;;2.15;0.88;;;;;;;17.04;48.49;99502.76;1733312;81;21047;-41
2021/05/31 11:12:04;;;;;;;2.05;0.88;;;;;;;16.97;48.71;99510.24;1734020;81;21054;-41
2021/05/31 11:14:37;;;;;;;1.52;0.88;;;;;;;16.87;48.93;99514.00;1727386;81;21621;-41
2021/05/31 11:17:17;;;;;;;1.45;0.85;;;;;;;16.75;48.93;99511.69;1727313;81;21214;-41
2021/05/31 11:19:51;;;;;;;1.85;1.00;;;;;;;16.65;49.92;99512.53;1728062;81;21558;-41
2021/05/31 11:22:28;;;;;;;1.90;1.05;;;;;;;16.64;51.29;99514.28;1734086;81;21048;-41
2021/05/31 11:25:08;;;;;;;2.10;0.90;;;;;;;16.61;51.80;99515.84;1752732;81;21172;-41
2021/05/31 11:27:40;;;;;;;3.40;1.00;;;;;;;16.56;51.80;99502.53;1775119;80;20990;-41
2021/05/31 11:30:12;;;;;;;1.95;1.10;;;;;;;16.51;52.48;99502.94;1749487;80;20986;-41
2021/05/31 11:32:38;;;;;;;1.35;0.82;;;;;;;16.45;51.21;99500.44;1750316;80;20958;-41
2021/05/31 11:35:08;;;;;;;1.98;1.37;;;;;;;16.38;50.91;99511.38;1750123;80;20970;-41
2021/05/31 11:37:35;;;;;;;1.67;1.13;;;;;;;16.31;51.39;99510.05;1751492;80;21042;-42
2021/05/31 11:40:04;;;;;;;2.60;1.10;;;;;;;16.24;52.16;99508.67;1751596;80;21682;-41
2021/05/31 11:42:30;;;;;;;2.45;0.85;;;;;;;16.20;52.11;99509.27;1750569;80;21595;-41
2021/05/31 11:44:58;;;;;;;1.12;0.90;;;;;;;16.16;51.84;99518.08;1772113;80;21074;-41
2021/05/31 11:47:27;;;;;;;3.62;0.98;;;;;;;16.07;51.63;99518.48;1774446;80;21072;-41
2021/05/31 11:49:54;;;;;;;3.08;1.10;;;;;;;15.99;51.95;99523.73;1765270;80;21042;-42
2021/05/31 11:52:25;;;;;;;1.20;0.95;;;;;;;15.89;52.20;99519.84;1772528;80;21600;-41
2021/05/31 11:54:52;;;;;;;1.00;0.78;;;;;;;15.75;51.49;99528.03;1787024;80;21022;-41
2021/05/31 11:57:23;;;;;;;2.00;0.88;;;;;;;15.68;52.19;99522.58;1758268;81;21070;-41
2021/05/31 11:59:53;;;;;;;2.33;1.35;;;;;;;15.64;53.11;99524.50;1755677;81;21042;-41
2021/05/31 12:02:23;;;;;;;3.12;1.35;;;;;;;15.59;53.76;99522.16;1762335;81;21888;-41
2021/05/31 12:04:51;;;;;;;1.50;1.10;;;;;;;15.60;54.39;99536.80;1769368;81;21246;-41